Dati Storici

Data ora Umidita' aria (%) Temperatura aria (°C) Rad globale (W/m²) Gonioanemometro (°) Tacoanemometro (m/s) Pioggia (mm)
31-10-2012 02:50 74.9 % 6.534 3.375 28.186 1.273 0
31-10-2012 02:40 75 % 6.642 3.554 21.294 2.679 0
31-10-2012 02:30 74.6 % 6.598 3.413 11.938 1.986 0
31-10-2012 02:20 74.5 % 6.62 3.656 16.025 2.249 0
31-10-2012 02:10 74.7 % 6.722 3.528 1.225 1.63 0
31-10-2012 02:00 74.4 % 6.709 3.785 30.305 3.029 0
31-10-2012 01:50 74.5 % 6.833 3.706 20.387 1.749 0
31-10-2012 01:40 74.4 % 6.82 3.809 11.803 3.492 0
31-10-2012 01:30 73.9 % 6.852 3.734 0.087 2.132 0
31-10-2012 01:20 73.1 % 6.968 3.554 6.156 2.214 0
31-10-2012 01:10 72.8 % 7.167 3.439 347.202 1.056 0
31-10-2012 01:00 72.6 % 7.199 3.606 354.298 1.584 0
31-10-2012 00:50 72.4 % 7.275 3.465 336.478 2.183 0
31-10-2012 00:40 72.6 % 7.28 3.541 -0.086 1.47 0
31-10-2012 00:30 72.5 % 7.445 3.503 24.739 1.692 0
31-10-2012 00:20 72.6 % 7.536 3.452 11.807 1.045 0
31-10-2012 00:10 72.6 % 7.431 3.567 4.635 2.238 0
31-10-2012 00:00 72.4 % 7.519 3.516 43.114 2.506 0
30-10-2012 23:50 72.4 % 7.527 3.477 351.218 1.758 0
30-10-2012 23:40 72.9 % 7.573 3.477 68.057 1.144 0

I dati sono presentati in modo automatico a scopo informativo. In seguito a verifica i dati possono subire modifiche o essere invalidati e non riportati negli archivi definitivi.